createdAt,value
2023-04-04T00:02:59.244Z,19.10
2023-04-04T00:18:05.304Z,13.70
2023-04-04T00:33:08.202Z,15.00
2023-04-04T00:48:11.443Z,15.20
2023-04-04T01:03:14.269Z,20.30
2023-04-04T01:18:20.092Z,14.90
2023-04-04T01:33:28.039Z,14.00
2023-04-04T01:48:30.803Z,12.60
2023-04-04T02:03:33.387Z,13.40
2023-04-04T02:18:36.990Z,14.30
2023-04-04T02:33:39.578Z,13.60
2023-04-04T02:48:42.163Z,14.50
2023-04-04T03:03:44.877Z,18.20
2023-04-04T03:18:48.243Z,17.80
2023-04-04T03:33:50.828Z,18.50
2023-04-04T03:48:53.436Z,18.40
2023-04-04T04:03:56.748Z,18.40
2023-04-04T04:18:59.498Z,20.30
2023-04-04T04:34:05.740Z,20.30
2023-04-04T04:49:08.768Z,16.00
2023-04-04T05:04:11.489Z,16.40
2023-04-04T05:19:14.094Z,16.20
2023-04-04T05:34:16.781Z,18.70
2023-04-04T05:49:19.514Z,19.00
2023-04-04T06:04:22.600Z,17.50
2023-04-04T06:19:25.271Z,13.90
2023-04-04T06:34:28.480Z,13.10
2023-04-04T06:49:31.181Z,11.60
2023-04-04T07:04:35.173Z,13.30
2023-04-04T07:19:37.930Z,11.50
2023-04-04T07:34:40.505Z,14.50
2023-04-04T07:49:43.650Z,8.90
2023-04-04T08:04:46.290Z,8.30
2023-04-04T08:19:49.031Z,12.80
2023-04-04T08:34:52.126Z,9.40
2023-04-04T08:50:01.814Z,10.20
2023-04-04T09:05:07.363Z,10.80
2023-04-04T09:20:35.977Z,6.90
2023-04-04T09:35:43.941Z,11.10
2023-04-04T09:50:47.429Z,7.20
2023-04-04T10:06:00.118Z,8.90
2023-04-04T10:21:15.291Z,8.60
2023-04-04T10:36:29.486Z,12.20
2023-04-04T10:51:37.117Z,8.30
2023-04-04T11:07:03.676Z,9.20
2023-04-04T11:22:06.722Z,6.80
2023-04-04T11:37:20.005Z,6.10
2023-04-04T11:52:23.977Z,13.10
2023-04-04T12:07:29.167Z,11.90
2023-04-04T12:22:35.691Z,12.50
2023-04-04T12:37:38.402Z,9.60
2023-04-04T13:23:06.758Z,15.70
2023-04-04T14:08:14.668Z,9.30
2023-04-04T14:23:17.535Z,10.00
2023-04-04T14:38:20.189Z,11.30
2023-04-04T14:53:23.581Z,10.60
2023-04-04T15:08:26.425Z,9.50
2023-04-04T15:23:28.986Z,10.10
2023-04-04T15:38:31.749Z,10.20
2023-04-04T15:53:34.564Z,9.20
2023-04-04T16:08:37.142Z,10.00
2023-04-04T16:23:39.777Z,9.40
2023-04-04T16:38:42.466Z,9.90
2023-04-04T16:53:45.037Z,11.00
2023-04-04T17:08:49.373Z,16.90
2023-04-04T17:23:52.172Z,18.30
2023-04-04T17:38:54.843Z,19.70
2023-04-04T17:53:57.531Z,14.80
2023-04-04T18:09:00.335Z,18.90
2023-04-04T18:24:04.359Z,24.30
2023-04-04T18:39:07.023Z,17.50
2023-04-04T18:54:09.683Z,17.60
2023-04-04T19:09:12.666Z,15.40
2023-04-04T19:24:15.601Z,14.30
2023-04-04T19:39:20.724Z,23.50
2023-04-04T19:54:34.135Z,23.40
2023-04-04T20:09:40.314Z,26.40
2023-04-04T20:24:46.705Z,51.00
2023-04-04T20:39:57.276Z,75.90
2023-04-04T20:55:02.890Z,107.00
2023-04-04T21:10:19.853Z,68.00
2023-04-04T21:25:43.804Z,64.60
2023-04-04T21:40:46.375Z,63.50
2023-04-04T21:55:49.133Z,81.90
2023-04-04T22:10:52.353Z,72.00
2023-04-04T22:25:54.961Z,39.70
2023-04-04T22:40:58.406Z,52.00
2023-04-04T22:56:01.185Z,50.20
2023-04-04T23:11:03.780Z,53.00
2023-04-04T23:26:06.919Z,66.20
2023-04-04T23:41:11.042Z,47.90
2023-04-04T23:56:13.755Z,43.50
